Time;durP1;ratioP1;P1;durP2;ratioP2;P2;SDS_P1;SDS_P2;PMS_P1;PMS_P2;Temp;Humidity;BMP_temperature;BMP_pressure;BME280_temperature;BME280_humidity;BME280_pressure;Samples;Min_cycle;Max_cycle;Signal;HPM_P1;HPM_P2
2022/03/18 00:00:29;;;;;;;23.80;8.90;;;;;;;1.50;100.00;102846.44;5953030;29;20118;-92
2022/03/18 00:03:31;;;;;;;16.77;7.60;;;;;;;1.48;100.00;102849.88;5936594;29;20055;-92
2022/03/18 00:06:33;;;;;;;19.63;9.20;;;;;;;1.46;100.00;102849.84;5937943;29;20416;-92
2022/03/18 00:09:35;;;;;;;17.35;8.13;;;;;;;1.41;100.00;102855.84;5943611;29;20039;-92
2022/03/18 00:12:37;;;;;;;17.08;7.65;;;;;;;1.36;100.00;102865.22;5947486;29;20493;-92
2022/03/18 00:15:39;;;;;;;12.95;6.50;;;;;;;1.27;100.00;102856.75;5941352;29;20412;-92
2022/03/18 00:18:41;;;;;;;16.10;6.72;;;;;;;1.21;100.00;102869.50;5953880;29;20051;-92
2022/03/18 00:21:43;;;;;;;13.73;6.55;;;;;;;1.16;100.00;102868.66;5971151;29;20134;-93
2022/03/18 00:24:45;;;;;;;12.13;5.43;;;;;;;1.10;100.00;102867.84;5973692;29;20564;-92
2022/03/18 00:27:48;;;;;;;11.10;6.20;;;;;;;1.06;100.00;102872.91;5939313;29;20246;-92
2022/03/18 00:30:50;;;;;;;14.95;5.82;;;;;;;1.02;100.00;102872.94;5939982;29;20063;-92
2022/03/18 00:33:52;;;;;;;12.27;5.47;;;;;;;0.96;100.00;102871.22;5958752;29;20120;-92
2022/03/18 00:36:54;;;;;;;9.82;5.40;;;;;;;0.94;100.00;102878.03;5971118;29;20055;-92
2022/03/18 00:39:56;;;;;;;8.73;5.18;;;;;;;0.93;100.00;102870.41;5940312;29;20059;-92
2022/03/18 00:43:00;;;;;;;11.18;4.88;;;;;;;0.91;100.00;102883.13;5960467;29;20058;-92
2022/03/18 00:46:02;;;;;;;10.52;5.30;;;;;;;0.88;100.00;102878.06;5941673;29;20050;-92
2022/03/18 00:52:24;;;;;;;10.20;5.22;;;;;;;0.93;100.00;102878.91;5959028;29;20059;-92
2022/03/18 00:55:26;;;;;;;14.27;5.25;;;;;;;0.96;100.00;102889.09;5949267;29;20050;-92
2022/03/18 00:58:28;;;;;;;8.98;4.60;;;;;;;0.98;100.00;102891.66;5960178;29;20043;-92
2022/03/18 01:01:30;;;;;;;9.70;4.35;;;;;;;0.97;100.00;102885.69;5966222;29;20095;-92
2022/03/18 01:04:32;;;;;;;11.10;4.30;;;;;;;0.99;100.00;102881.41;5965184;29;20043;-92
2022/03/18 01:07:34;;;;;;;13.38;4.05;;;;;;;1.03;100.00;102878.03;5958619;29;20051;-92
2022/03/18 01:10:36;;;;;;;9.23;4.90;;;;;;;1.05;100.00;102881.44;5959046;29;20070;-92
2022/03/18 01:13:38;;;;;;;8.70;4.78;;;;;;;1.04;100.00;102881.41;5950306;29;20062;-92
2022/03/18 01:16:40;;;;;;;9.05;5.00;;;;;;;1.03;100.00;102892.50;5949835;29;20054;-92
2022/03/18 01:19:43;;;;;;;13.52;5.63;;;;;;;1.04;100.00;102889.06;5934571;29;20054;-92
2022/03/18 01:22:44;;;;;;;14.77;5.53;;;;;;;0.96;100.00;102899.28;5954334;29;20063;-92
2022/03/18 01:25:46;;;;;;;12.93;4.72;;;;;;;0.94;100.00;102897.59;5963568;29;20039;-93
2022/03/18 01:28:48;;;;;;;10.15;4.68;;;;;;;0.92;100.00;102900.16;5962765;29;20184;-92
2022/03/18 01:31:50;;;;;;;9.98;4.55;;;;;;;0.86;100.00;102898.44;5959146;29;20099;-92
2022/03/18 01:34:51;;;;;;;10.18;4.57;;;;;;;0.82;100.00;102903.53;5949636;29;20050;-92
2022/03/18 01:37:53;;;;;;;16.13;4.88;;;;;;;0.76;100.00;102903.53;5939340;29;20070;-92
2022/03/18 01:40:55;;;;;;;11.60;4.45;;;;;;;0.71;100.00;102915.44;5957582;29;20088;-92
2022/03/18 01:43:57;;;;;;;8.18;3.95;;;;;;;0.65;100.00;102903.53;5949057;29;20047;-92
2022/03/18 01:47:00;;;;;;;9.73;4.20;;;;;;;0.61;100.00;102909.47;5942269;29;20054;-92
2022/03/18 01:50:01;;;;;;;10.13;3.88;;;;;;;0.52;100.00;102917.97;5951846;29;20058;-92
2022/03/18 01:53:03;;;;;;;10.07;4.32;;;;;;;0.45;100.00;102913.72;5950192;29;20059;-92
2022/03/18 01:56:06;;;;;;;7.68;3.70;;;;;;;0.43;100.00;102908.59;5956536;29;20490;-92
2022/03/18 01:59:07;;;;;;;13.80;3.05;;;;;;;0.47;100.00;102912.00;5944829;29;20085;-92
2022/03/18 02:02:09;;;;;;;6.47;2.97;;;;;;;0.55;100.00;102914.59;5957666;29;20126;-92
2022/03/18 02:05:14;;;;;;;12.02;3.15;;;;;;;0.57;100.00;102920.50;5955887;29;20051;-92
2022/03/18 02:08:17;;;;;;;8.70;2.88;;;;;;;0.58;100.00;102927.31;5938381;29;20051;-92
2022/03/18 02:11:19;;;;;;;7.70;3.03;;;;;;;0.59;100.00;102926.47;5965244;29;20050;-92
2022/03/18 02:14:34;;;;;;;9.77;2.88;;;;;;;0.60;100.00;102928.19;5960709;29;20967;-92
2022/03/18 02:17:37;;;;;;;10.85;2.90;;;;;;;0.57;100.00;102925.59;5929490;29;20050;-92
2022/03/18 02:20:39;;;;;;;8.70;4.05;;;;;;;0.59;100.00;102927.31;5958986;29;20043;-92
2022/03/18 02:23:43;;;;;;;12.18;3.47;;;;;;;0.57;100.00;102934.13;5958707;29;20047;-92
2022/03/18 02:26:52;;;;;;;10.35;3.40;;;;;;;0.56;100.00;102942.59;5939674;29;20527;-92
2022/03/18 02:29:54;;;;;;;12.73;3.25;;;;;;;0.55;100.00;102947.72;5957175;29;20172;-92
2022/03/18 02:32:57;;;;;;;7.63;3.17;;;;;;;0.54;100.00;102943.44;5942917;29;20046;-92
2022/03/18 02:35:58;;;;;;;10.68;2.80;;;;;;;0.56;100.00;102949.41;5962664;29;20915;-92
2022/03/18 02:39:00;;;;;;;7.38;2.60;;;;;;;0.52;100.00;102948.56;5950446;29;20938;-92
2022/03/18 02:42:02;;;;;;;9.27;3.08;;;;;;;0.48;100.00;102962.13;5961476;29;20046;-92
2022/03/18 02:45:04;;;;;;;10.85;3.05;;;;;;;0.47;100.00;102965.50;5961236;29;20039;-92
2022/03/18 02:48:06;;;;;;;9.18;2.67;;;;;;;0.48;100.00;102968.94;5944480;29;20084;-92
2022/03/18 02:51:08;;;;;;;6.07;2.70;;;;;;;0.43;100.00;102972.31;5954726;29;20039;-92
2022/03/18 02:54:10;;;;;;;6.00;2.80;;;;;;;0.39;100.00;102967.19;5925827;29;20054;-92
2022/03/18 02:57:12;;;;;;;10.82;3.08;;;;;;;0.38;100.00;102968.03;5956153;29;20164;-92
2022/03/18 03:00:16;;;;;;;7.88;2.97;;;;;;;0.37;100.00;102966.31;5942264;29;20057;-92
2022/03/18 03:03:17;;;;;;;10.80;3.60;;;;;;;0.34;100.00;102976.50;5955580;29;20062;-92
2022/03/18 03:09:40;;;;;;;8.77;3.15;;;;;;;0.32;100.00;102983.28;5957130;29;20046;-92
2022/03/18 03:12:42;;;;;;;10.30;2.95;;;;;;;0.32;100.00;102986.69;5937276;29;20074;-92
2022/03/18 03:15:44;;;;;;;10.18;3.55;;;;;;;0.27;100.00;102995.16;5925255;29;20506;-92
2022/03/18 03:18:46;;;;;;;6.53;3.40;;;;;;;0.23;100.00;102998.56;5954940;29;20493;-92
2022/03/18 03:21:48;;;;;;;8.23;3.00;;;;;;;0.19;100.00;103008.72;5953971;29;20188;-92
2022/03/18 03:24:50;;;;;;;7.45;2.95;;;;;;;0.15;100.00;103004.47;5954647;29;20050;-92
2022/03/18 03:27:52;;;;;;;7.72;3.25;;;;;;;0.15;100.00;103013.78;5938679;29;20071;-92
2022/03/18 03:30:54;;;;;;;10.35;3.25;;;;;;;0.12;100.00;103012.06;5955164;29;20047;-92
2022/03/18 03:33:56;;;;;;;9.57;3.00;;;;;;;0.11;100.00;103033.31;5939140;29;20062;-92
2022/03/18 03:36:58;;;;;;;12.48;2.67;;;;;;;0.05;100.00;103030.75;5956053;29;20047;-92
2022/03/18 03:40:00;;;;;;;7.65;2.72;;;;;;;0.09;100.00;103047.72;5935359;29;20599;-92
2022/03/18 03:43:02;;;;;;;6.85;2.90;;;;;;;0.05;100.00;103040.91;5937609;29;20055;-91
2022/03/18 03:46:05;;;;;;;8.20;3.13;;;;;;;0.02;100.00;103052.75;5953872;29;20592;-92
2022/03/18 03:49:09;;;;;;;8.73;2.60;;;;;;;-0.01;100.00;103058.69;5957025;29;20051;-92
2022/03/18 03:52:11;;;;;;;7.90;2.80;;;;;;;-0.03;100.00;103057.81;5943766;29;20049;-92
2022/03/18 03:55:13;;;;;;;10.20;2.53;;;;;;;-0.05;100.00;103057.84;5957387;29;20413;-92
2022/03/18 03:58:15;;;;;;;10.75;3.70;;;;;;;-0.04;100.00;103064.63;5956597;29;20124;-92
2022/03/18 04:01:17;;;;;;;8.98;2.65;;;;;;;-0.09;100.00;103073.06;5943525;29;20050;-92
2022/03/18 04:04:19;;;;;;;7.05;2.70;;;;;;;-0.05;100.00;103070.56;5947145;29;20043;-92
2022/03/18 04:07:20;;;;;;;14.50;3.05;;;;;;;-0.06;100.00;103080.72;5939682;29;20376;-92
2022/03/18 04:10:22;;;;;;;8.35;2.53;;;;;;;-0.09;100.00;103088.34;5951081;29;20094;-92
2022/03/18 04:13:24;;;;;;;13.75;3.30;;;;;;;-0.06;100.00;103089.22;5939978;29;20138;-92
2022/03/18 04:16:26;;;;;;;11.90;3.40;;;;;;;-0.09;100.00;103085.81;5956746;29;20580;-92
2022/03/18 04:19:31;;;;;;;12.05;2.78;;;;;;;-0.05;100.00;103084.97;5966454;29;20091;-92
2022/03/18 04:22:33;;;;;;;11.52;2.63;;;;;;;-0.07;100.00;103090.06;5953834;29;20053;-92
2022/03/18 04:25:34;;;;;;;11.52;3.08;;;;;;;0.01;100.00;103102.00;5954963;29;20046;-91
2022/03/18 04:28:36;;;;;;;7.82;2.67;;;;;;;0.01;100.00;103104.53;5949965;29;20055;-91
2022/03/18 04:31:38;;;;;;;6.18;2.60;;;;;;;-0.04;100.00;103104.50;5939597;29;20043;-91
2022/03/18 04:34:40;;;;;;;14.48;2.38;;;;;;;-0.07;100.00;103105.34;5950165;29;20090;-91
2022/03/18 04:37:43;;;;;;;6.97;2.40;;;;;;;-0.08;100.00;103105.31;5954563;29;20051;-92
2022/03/18 04:40:44;;;;;;;7.25;2.53;;;;;;;-0.09;100.00;103111.25;5955186;29;20126;-93
2022/03/18 04:43:46;;;;;;;12.50;2.88;;;;;;;-0.15;100.00;103103.56;5956532;29;20051;-93
2022/03/18 04:46:48;;;;;;;12.35;2.78;;;;;;;-0.07;100.00;103099.41;5965180;29;20092;-92
2022/03/18 04:49:50;;;;;;;14.80;3.33;;;;;;;-0.03;100.00;103108.75;5956046;29;20043;-92
2022/03/18 04:52:52;;;;;;;11.98;2.50;;;;;;;-0.06;100.00;103121.47;5961891;29;20039;-93
2022/03/18 04:55:53;;;;;;;11.27;2.60;;;;;;;-0.09;100.00;103122.28;5948994;29;20113;-92
2022/03/18 04:58:55;;;;;;;9.70;3.25;;;;;;;-0.16;100.00;103125.63;5955891;29;20063;-93
2022/03/18 05:01:58;;;;;;;8.48;2.40;;;;;;;-0.24;100.00;103128.13;5940867;29;20073;-93
2022/03/18 05:05:00;;;;;;;6.65;2.72;;;;;;;-0.29;100.00;103134.84;5936872;29;20063;-92
2022/03/18 05:08:05;;;;;;;10.02;2.70;;;;;;;-0.29;100.00;103128.94;5931961;29;20051;-92
2022/03/18 05:11:06;;;;;;;6.05;2.25;;;;;;;-0.34;100.00;103128.03;5956931;29;20512;-92
2022/03/18 05:14:08;;;;;;;9.25;2.53;;;;;;;-0.39;100.00;103134.78;5936954;29;20047;-93
2022/03/18 05:17:13;;;;;;;9.10;2.20;;;;;;;-0.41;100.00;103139.84;5944629;29;20058;-92
2022/03/18 05:20:15;;;;;;;9.82;2.90;;;;;;;-0.40;100.00;103140.69;5956598;29;20123;-93
2022/03/18 05:23:17;;;;;;;5.03;2.17;;;;;;;-0.39;100.00;103138.16;5953727;29;20058;-93
2022/03/18 05:26:19;;;;;;;9.02;2.20;;;;;;;-0.46;100.00;103146.59;5977549;29;20094;-93
2022/03/18 05:29:22;;;;;;;7.97;2.15;;;;;;;-0.49;100.00;103155.03;5959320;29;20536;-93
2022/03/18 05:32:23;;;;;;;7.57;2.15;;;;;;;-0.51;100.00;103166.03;5952068;29;20034;-92
2022/03/18 05:35:45;;;;;;;11.23;2.65;;;;;;;-0.55;100.00;103177.00;5959840;29;20413;-93
2022/03/18 05:38:55;;;;;;;7.88;2.20;;;;;;;-0.56;100.00;103182.94;5956793;29;20050;-93
2022/03/18 05:41:57;;;;;;;13.95;2.80;;;;;;;-0.57;100.00;103181.22;5964601;29;20050;-92
2022/03/18 05:45:00;;;;;;;8.30;2.63;;;;;;;-0.59;100.00;103181.22;5961764;29;20062;-93
2022/03/18 05:48:04;;;;;;;11.82;3.65;;;;;;;-0.60;100.00;103173.56;5944717;29;20050;-92
2022/03/18 05:51:07;;;;;;;12.60;3.38;;;;;;;-0.56;100.00;103172.78;5944707;29;20051;-93
2022/03/18 05:54:10;;;;;;;11.05;3.30;;;;;;;-0.54;100.00;103171.09;5957901;29;20519;-93
2022/03/18 05:57:12;;;;;;;10.15;4.40;;;;;;;-0.55;100.00;103182.94;5960056;29;20059;-92
2022/03/18 06:00:15;;;;;;;13.35;4.63;;;;;;;-0.58;100.00;103190.56;5945999;29;20050;-93
2022/03/18 06:03:18;;;;;;;12.15;3.45;;;;;;;-0.60;100.00;103201.53;5944855;29;20433;-93
2022/03/18 06:06:20;;;;;;;9.52;2.97;;;;;;;-0.55;100.00;103200.75;5962942;29;20043;-93
2022/03/18 06:12:43;;;;;;;6.67;2.60;;;;;;;-0.51;100.00;103222.00;5959858;29;20051;-93
2022/03/18 06:15:44;;;;;;;10.43;3.38;;;;;;;-0.44;100.00;103219.53;5944573;29;20308;-93
2022/03/18 06:18:52;;;;;;;10.27;2.70;;;;;;;-0.39;100.00;103211.97;5945244;29;20050;-92
2022/03/18 06:21:54;;;;;;;9.45;3.20;;;;;;;-0.33;100.00;103213.69;5963648;29;20059;-93
2022/03/18 06:24:56;;;;;;;7.72;3.05;;;;;;;-0.33;100.00;103209.47;5960245;29;20124;-93
2022/03/18 06:27:58;;;;;;;12.50;3.22;;;;;;;-0.24;100.00;103217.19;5968551;29;20114;-93
2022/03/18 06:31:11;;;;;;;8.88;2.80;;;;;;;-0.23;100.00;103218.88;5937857;29;20044;-93
2022/03/18 06:34:14;;;;;;;11.55;3.90;;;;;;;-0.18;100.00;103218.94;5958228;29;20050;-93
2022/03/18 06:37:17;;;;;;;13.90;3.28;;;;;;;-0.09;100.00;103236.00;5943629;29;20086;-93
2022/03/18 06:40:19;;;;;;;6.13;3.40;;;;;;;-0.05;100.00;103243.69;5943453;29;20075;-92
2022/03/18 06:43:21;;;;;;;5.82;3.10;;;;;;;0.00;100.00;103256.47;5938554;29;20134;-93
2022/03/18 06:46:23;;;;;;;8.82;3.38;;;;;;;0.08;100.00;103265.03;5947975;29;20580;-93
2022/03/18 06:49:25;;;;;;;11.32;3.25;;;;;;;0.14;100.00;103270.16;5930223;29;20094;-93
2022/03/18 06:52:27;;;;;;;11.15;4.53;;;;;;;0.20;100.00;103270.22;5943111;29;20077;-93
2022/03/18 06:55:30;;;;;;;12.73;3.47;;;;;;;0.23;100.00;103268.53;5942665;29;20036;-93
2022/03/18 06:58:34;;;;;;;13.07;3.80;;;;;;;0.29;100.00;103279.63;5934267;29;20048;-93
2022/03/18 07:01:36;;;;;;;11.35;3.30;;;;;;;0.35;100.00;103279.69;5946880;29;20085;-93
2022/03/18 07:04:39;;;;;;;10.05;3.97;;;;;;;0.40;100.00;103287.38;5944914;29;20154;-93
2022/03/18 07:07:41;;;;;;;10.18;3.40;;;;;;;0.44;100.00;103299.28;5937553;29;20057;-93
2022/03/18 07:10:43;;;;;;;6.18;2.80;;;;;;;0.50;100.00;103296.78;5946056;29;20038;-93
2022/03/18 07:13:46;;;;;;;6.97;3.13;;;;;;;0.55;100.00;103299.38;5943625;29;20124;-93
2022/03/18 07:20:09;;;;;;;14.65;4.32;;;;;;;0.67;100.00;103296.91;5949032;29;20054;-93
2022/03/18 08:17:42;;;;;;;11.00;3.78;;;;;;;2.18;100.00;103312.84;7216983;23;20029;-94
2022/03/18 08:20:55;;;;;;;11.82;4.63;;;;;;;2.27;100.00;103310.31;6151198;24;20053;-94
2022/03/18 08:24:06;;;;;;;17.05;4.28;;;;;;;2.37;100.00;103307.75;6032013;29;20026;-94
2022/03/18 08:27:19;;;;;;;8.43;4.20;;;;;;;2.48;100.00;103312.84;6014545;29;20048;-94
2022/03/18 08:56:05;;;;;;;10.27;3.20;;;;;;;3.32;100.00;103369.88;6018160;23;19924;-93
2022/03/18 08:59:07;;;;;;;17.10;3.25;;;;;;;3.44;100.00;103364.72;6010578;29;20048;-93
2022/03/18 09:02:10;;;;;;;11.30;3.15;;;;;;;3.57;100.00;103373.22;6016345;29;20061;-92
2022/03/18 09:05:13;;;;;;;8.98;2.67;;;;;;;3.66;100.00;103376.59;6035258;29;20101;-93
2022/03/18 09:08:15;;;;;;;15.32;4.32;;;;;;;3.75;100.00;103388.53;6012936;29;20039;-92
2022/03/18 10:05:31;;;;;;;12.82;3.90;;;;;;;5.67;100.00;103451.19;7338909;23;20020;31
2022/03/18 10:08:33;;;;;;;11.80;4.50;;;;;;;5.76;100.00;103463.97;5985705;29;20385;-94
2022/03/18 10:11:37;;;;;;;14.10;4.35;;;;;;;5.86;100.00;103458.69;5998077;29;20042;-94
2022/03/18 10:14:39;;;;;;;15.85;4.13;;;;;;;5.96;100.00;103455.16;5980345;29;20051;-94
2022/03/18 10:17:56;;;;;;;16.95;5.75;;;;;;;6.00;100.00;103457.69;5989109;29;20047;-94
2022/03/18 10:21:08;;;;;;;13.02;4.43;;;;;;;6.01;100.00;103454.25;5989232;29;20117;-93
2022/03/18 10:24:10;;;;;;;11.65;4.47;;;;;;;5.95;100.00;103454.31;5987081;29;20084;-94
2022/03/18 10:27:21;;;;;;;12.57;4.28;;;;;;;6.03;100.00;103449.91;5983287;29;20047;-94
2022/03/18 10:30:23;;;;;;;16.52;4.28;;;;;;;6.05;100.00;103455.06;5971733;29;20043;-93
2022/03/18 10:37:39;;;;;;;11.27;3.63;;;;;;;6.60;100.00;103467.16;6182340;23;20062;-92
2022/03/18 10:40:41;;;;;;;10.18;3.78;;;;;;;6.54;100.00;103469.84;5986993;29;20149;-93
2022/03/18 10:43:54;;;;;;;11.32;4.40;;;;;;;6.74;100.00;103476.41;5984425;29;20064;-93
2022/03/18 10:46:56;;;;;;;12.30;3.95;;;;;;;6.82;100.00;103467.69;5997148;29;20046;-92
2022/03/18 10:50:10;;;;;;;13.52;4.80;;;;;;;6.85;100.00;103469.34;5997369;29;20026;-92
2022/03/18 10:53:12;;;;;;;12.20;3.97;;;;;;;6.90;100.00;103473.56;5986588;29;20054;-93
2022/03/18 10:56:14;;;;;;;13.30;4.25;;;;;;;7.07;100.00;103475.84;5978462;29;20042;-93
2022/03/18 10:59:19;;;;;;;12.70;3.83;;;;;;;7.04;100.00;103469.91;5982853;29;20054;-93
2022/03/18 11:42:30;;;;;;;10.98;3.67;;;;;;;8.65;100.00;103458.13;7093099;23;20038;-93
2022/03/18 11:49:44;;;;;;;10.02;3.65;;;;;;;8.95;100.00;103457.38;6026851;23;20042;-95
2022/03/18 13:16:43;;;;;;;4.55;2.00;;;;;;;11.93;89.51;103405.78;7061647;23;20039;31
2022/03/18 13:19:50;;;;;;;3.35;1.90;;;;;;;12.13;84.36;103413.63;5991310;29;20051;-93
2022/03/18 14:06:09;;;;;;;4.93;2.25;;;;;;;13.37;69.58;103404.19;5979767;29;20086;-92
2022/03/18 14:09:51;;;;;;;6.25;2.47;;;;;;;13.66;65.46;103408.88;6071760;23;20043;31
2022/03/18 14:13:06;;;;;;;3.63;2.30;;;;;;;13.88;64.04;103395.72;6502170;23;20054;-93
2022/03/18 14:16:27;;;;;;;5.25;2.20;;;;;;;13.73;65.44;103409.44;7145094;23;20044;31
2022/03/18 14:45:02;;;;;;;6.70;2.20;;;;;;;13.77;61.20;103422.25;7360687;23;20194;31
2022/03/18 15:03:32;;;;;;;5.15;1.90;;;;;;;12.40;66.96;103410.84;6756910;23;20050;-94
2022/03/18 15:06:34;;;;;;;7.03;2.33;;;;;;;12.64;64.15;103404.63;6025778;29;20067;-95
2022/03/18 15:09:38;;;;;;;6.85;1.98;;;;;;;13.28;65.06;103408.84;6012226;29;20122;-94
2022/03/18 16:54:19;;;;;;;5.70;2.75;;;;;;;10.66;76.01;103424.06;7348082;23;20359;-92
2022/03/18 17:13:15;;;;;;;13.65;5.38;;;;;;;9.45;87.16;103431.94;5819932;23;20069;-92
2022/03/18 17:16:17;;;;;;;9.75;3.60;;;;;;;9.31;88.24;103438.38;6049231;29;20029;-92
2022/03/18 17:19:33;;;;;;;8.55;2.92;;;;;;;9.16;90.01;103445.66;6036419;29;20038;-92
2022/03/18 17:22:36;;;;;;;10.90;3.55;;;;;;;9.03;92.40;103439.94;6024069;29;20021;-93
2022/03/18 17:25:52;;;;;;;5.70;2.97;;;;;;;8.98;95.55;103451.28;5964253;29;20046;-93
2022/03/18 17:28:55;;;;;;;5.05;2.80;;;;;;;8.90;96.24;103448.91;5986656;29;20043;-92
2022/03/18 17:31:57;;;;;;;7.68;3.08;;;;;;;8.80;96.94;103456.03;5978332;29;20141;-92
2022/03/18 17:34:59;;;;;;;4.97;2.97;;;;;;;8.73;98.07;103467.38;5964301;29;20039;-92
2022/03/18 17:38:04;;;;;;;5.72;3.30;;;;;;;8.67;100.00;103462.38;5974960;29;20050;-93
2022/03/18 17:41:08;;;;;;;8.88;3.55;;;;;;;8.59;100.00;103459.94;5973965;29;20046;-93
2022/03/18 17:44:11;;;;;;;7.22;3.22;;;;;;;8.52;100.00;103461.00;5978584;29;20088;-93
2022/03/18 17:47:13;;;;;;;10.32;3.95;;;;;;;8.39;100.00;103463.00;5982839;29;20589;-92
2022/03/18 17:50:17;;;;;;;14.95;8.05;;;;;;;8.21;100.00;103473.69;5981026;29;20047;-93
2022/03/18 17:53:19;;;;;;;9.63;5.15;;;;;;;8.04;100.00;103474.06;5966353;29;20059;-92
2022/03/18 17:56:20;;;;;;;8.43;4.22;;;;;;;7.86;100.00;103477.84;5978756;29;20142;-92
2022/03/18 17:59:23;;;;;;;8.35;2.95;;;;;;;7.77;100.00;103481.44;5980761;29;20043;-92
2022/03/18 18:02:25;;;;;;;7.97;3.60;;;;;;;7.61;100.00;103487.81;5973714;29;20070;-93
2022/03/18 18:05:27;;;;;;;23.52;10.23;;;;;;;7.49;100.00;103481.13;5970147;29;20046;-92
2022/03/18 18:08:29;;;;;;;14.60;8.18;;;;;;;7.42;100.00;103494.16;5968594;29;20051;-92
2022/03/18 18:11:33;;;;;;;12.40;5.40;;;;;;;7.29;100.00;103496.97;5964763;29;20079;-93
2022/03/18 18:14:37;;;;;;;13.45;6.10;;;;;;;7.17;100.00;103489.44;5963926;29;20031;-93
2022/03/18 18:17:39;;;;;;;10.30;5.75;;;;;;;7.02;100.00;103492.28;5965350;29;20039;-92
2022/03/18 18:24:02;;;;;;;;;;;;;;;6.76;100.00;103502.97;5968252;29;20054;-93
2022/03/18 18:27:07;;;;;;;6.28;4.55;;;;;;;6.63;100.00;103505.75;5967994;29;19925;-92
2022/03/18 18:30:09;;;;;;;9.93;4.28;;;;;;;6.54;100.00;103510.16;5987863;29;20042;-93
2022/03/18 18:33:12;;;;;;;8.35;4.75;;;;;;;6.46;100.00;103508.53;5967921;29;20111;-93
2022/03/18 18:36:15;;;;;;;8.27;4.20;;;;;;;6.41;100.00;103512.03;5984567;29;20099;-92
2022/03/18 18:39:19;;;;;;;9.95;5.05;;;;;;;6.29;100.00;103510.47;5989453;29;20113;-93
2022/03/18 18:42:26;;;;;;;8.68;5.00;;;;;;;6.21;100.00;103510.59;5970627;29;20078;-93
2022/03/18 18:45:29;;;;;;;10.57;5.03;;;;;;;6.17;100.00;103523.50;5989285;29;20061;-92
2022/03/18 18:48:35;;;;;;;8.77;5.22;;;;;;;6.13;100.00;103514.09;5968400;29;20077;-92
2022/03/18 18:51:37;;;;;;;15.10;6.60;;;;;;;6.10;100.00;103529.56;5972690;29;20066;-93
2022/03/18 18:54:46;;;;;;;12.90;6.18;;;;;;;6.12;100.00;103523.53;5980145;29;20092;-93
2022/03/18 18:57:48;;;;;;;8.57;4.90;;;;;;;6.20;100.00;103531.16;5985539;29;20050;-93
2022/03/18 19:00:51;;;;;;;7.63;4.35;;;;;;;6.16;100.00;103524.34;6001294;29;20573;-93
2022/03/18 19:03:54;;;;;;;10.18;4.40;;;;;;;6.13;100.00;103526.97;5990539;29;20084;-93
2022/03/18 19:06:57;;;;;;;10.15;4.22;;;;;;;6.23;100.00;103534.53;5992683;29;20471;-93
2022/03/18 19:09:59;;;;;;;7.20;4.13;;;;;;;6.17;100.00;103531.22;5989115;29;20050;-93
2022/03/18 19:13:05;;;;;;;7.43;4.30;;;;;;;6.09;100.00;103528.75;5981121;29;20046;-93
2022/03/18 19:16:17;;;;;;;10.27;4.40;;;;;;;6.07;100.00;103535.59;5961084;29;20043;-92
2022/03/18 19:19:19;;;;;;;12.27;6.30;;;;;;;6.00;100.00;103531.41;5979789;29;20049;-92
2022/03/18 19:22:22;;;;;;;7.50;5.28;;;;;;;5.95;100.00;103530.59;5946235;29;20044;-92
2022/03/18 19:25:25;;;;;;;12.30;5.60;;;;;;;5.88;100.00;103529.78;5948169;29;20053;-93
2022/03/18 19:28:27;;;;;;;10.02;5.57;;;;;;;5.81;100.00;103531.59;5940677;29;20048;-92
2022/03/18 19:34:50;;;;;;;15.27;8.27;;;;;;;5.73;100.00;103541.06;5953994;29;20057;-93
2022/03/18 19:37:53;;;;;;;10.02;6.03;;;;;;;5.65;100.00;103552.31;5941663;29;20051;-92
2022/03/18 19:41:01;;;;;;;10.95;5.28;;;;;;;5.56;100.00;103555.78;6019820;29;20048;-92
2022/03/18 19:44:13;;;;;;;11.30;5.43;;;;;;;5.46;100.00;103554.19;6030176;29;20049;-92
2022/03/18 19:47:53;;;;;;;11.00;5.18;;;;;;;5.37;100.00;103552.56;6119098;24;20053;-92
2022/03/18 19:51:02;;;;;;;10.05;5.53;;;;;;;5.31;100.00;103558.56;5992505;29;20106;-92
2022/03/18 19:54:18;;;;;;;11.75;5.05;;;;;;;5.27;100.00;103559.47;6020090;29;20029;-93
2022/03/18 20:01:09;;;;;;;8.80;5.40;;;;;;;5.21;100.00;103564.66;6281388;23;20134;-91
2022/03/18 20:04:23;;;;;;;10.77;5.90;;;;;;;5.18;100.00;103564.66;6024134;23;20063;-91
2022/03/18 20:07:35;;;;;;;10.23;5.95;;;;;;;5.17;100.00;103571.53;6022716;29;20054;-91
2022/03/18 20:11:15;;;;;;;12.07;7.22;;;;;;;5.13;100.00;103569.00;5986936;29;20095;-92
2022/03/18 20:14:33;;;;;;;13.95;7.40;;;;;;;5.07;100.00;103577.59;5969797;29;20052;-91
2022/03/18 20:18:10;;;;;;;;;;;;;;;5.04;100.00;103581.88;5956785;30;20059;-91
2022/03/18 20:21:53;;;;;;;12.25;6.47;;;;;;;5.02;100.00;103581.03;6066762;24;19929;-91
2022/03/18 20:25:14;;;;;;;12.45;5.95;;;;;;;4.99;100.00;103576.78;6000221;29;20050;-92
2022/03/18 20:28:28;;;;;;;13.85;6.70;;;;;;;4.95;100.00;103577.69;5965843;30;20066;-91
2022/03/18 20:31:44;;;;;;;16.83;8.07;;;;;;;4.85;100.00;103578.59;6032969;29;20637;-91
2022/03/18 20:42:02;;;;;;;22.50;7.90;;;;;;;4.73;100.00;103582.06;6154754;24;20124;-92
2022/03/18 20:45:17;;;;;;;13.32;7.60;;;;;;;4.70;100.00;103584.66;5995016;29;20064;-91
2022/03/18 20:48:29;;;;;;;;;;;;;;;4.71;100.00;103581.22;5956041;29;20039;-92
2022/03/18 20:51:39;;;;;;;13.35;6.35;;;;;;;4.68;100.00;103582.09;5951038;29;19936;-92
2022/03/18 20:55:02;;;;;;;16.63;7.63;;;;;;;4.64;100.00;103585.50;5959719;29;20034;-92
2022/03/18 20:58:05;;;;;;;12.90;6.45;;;;;;;4.62;100.00;103588.94;5960919;29;20031;-92
2022/03/18 21:01:13;;;;;;;12.10;5.85;;;;;;;4.61;100.00;103595.81;6043891;24;20079;-92
2022/03/18 21:04:21;;;;;;;10.88;6.32;;;;;;;4.61;100.00;103600.09;6003332;29;20062;-92
2022/03/18 21:07:27;;;;;;;11.25;6.20;;;;;;;4.57;100.00;103595.81;5987728;29;20051;-92
2022/03/18 21:10:35;;;;;;;9.50;4.78;;;;;;;4.50;100.00;103598.41;5988043;29;20046;-91
2022/03/18 21:13:39;;;;;;;12.07;5.38;;;;;;;4.39;100.00;103602.72;6001231;29;20042;-92
2022/03/18 21:17:23;;;;;;;9.27;5.85;;;;;;;4.31;100.00;103604.47;5983724;29;20027;-92
2022/03/18 21:20:17;;;;;;;8.70;5.47;;;;;;;4.24;100.00;103603.63;5998793;29;20053;-92
2022/03/18 21:23:21;;;;;;;8.85;5.68;;;;;;;4.16;100.00;103602.78;6007747;29;20043;-91
2022/03/18 21:33:18;;;;;;;13.43;6.28;;;;;;;3.99;100.00;103604.53;6001205;29;20038;-91
2022/03/18 21:36:24;;;;;;;10.85;6.20;;;;;;;3.97;100.00;103612.22;5980359;29;20046;-92
2022/03/18 21:39:31;;;;;;;10.45;6.43;;;;;;;3.91;100.00;103601.16;5983615;29;20082;-92
2022/03/18 21:42:36;;;;;;;9.77;5.13;;;;;;;3.88;100.00;103609.69;5985736;29;20046;-91
2022/03/18 21:45:46;;;;;;;7.15;5.50;;;;;;;3.83;100.00;103611.41;5991681;29;20050;-92
2022/03/18 21:49:09;;;;;;;11.05;6.22;;;;;;;3.79;100.00;103618.22;6007301;29;20030;-92
2022/03/18 21:52:12;;;;;;;9.48;5.70;;;;;;;3.77;100.00;103612.25;5991053;29;20039;-91
2022/03/18 21:55:15;;;;;;;13.25;7.53;;;;;;;3.77;100.00;103612.25;6001681;29;20054;-92
2022/03/18 21:58:19;;;;;;;9.45;5.60;;;;;;;3.78;100.00;103613.97;5981206;29;20058;-92
2022/03/18 22:01:21;;;;;;;10.18;5.35;;;;;;;3.75;100.00;103620.78;5972985;29;20141;-91
2022/03/18 22:04:25;;;;;;;15.70;6.05;;;;;;;3.72;100.00;103610.53;5991228;29;20058;-91
2022/03/18 22:07:32;;;;;;;10.82;6.25;;;;;;;3.70;100.00;103609.69;5993420;29;20555;-92
2022/03/18 22:10:36;;;;;;;14.80;6.45;;;;;;;3.70;100.00;103609.69;6001725;29;20055;-92
2022/03/18 22:13:40;;;;;;;13.13;5.97;;;;;;;3.70;100.00;103612.25;6000199;29;20054;-92
2022/03/18 22:16:44;;;;;;;13.13;6.05;;;;;;;3.73;100.00;103617.38;5968695;29;20509;-91
2022/03/18 22:19:49;;;;;;;11.50;6.18;;;;;;;3.71;100.00;103616.53;5990594;29;20054;-92
2022/03/18 22:22:51;;;;;;;10.45;6.43;;;;;;;3.68;100.00;103607.16;5985137;29;20050;-92
2022/03/18 22:26:02;;;;;;;12.27;5.87;;;;;;;3.69;100.00;103605.44;5984146;29;20050;-92
2022/03/18 22:29:17;;;;;;;8.93;5.15;;;;;;;3.72;100.00;103613.09;5981270;29;20043;-92
2022/03/18 22:32:22;;;;;;;12.80;5.47;;;;;;;3.69;100.00;103605.44;5989316;29;20273;-92
2022/03/18 22:35:29;;;;;;;11.77;5.80;;;;;;;3.66;100.00;103602.00;5999104;29;20072;-92
2022/03/18 22:38:42;;;;;;;10.57;5.05;;;;;;;3.64;100.00;103603.72;6021379;29;20049;-92